createdAt,value
2022-12-03T00:01:24.116Z,101538.60
2022-12-03T00:03:51.973Z,101535.00
2022-12-03T00:06:19.969Z,101536.80
2022-12-03T00:08:47.743Z,101535.40
2022-12-03T00:11:15.593Z,101533.20
2022-12-03T00:13:43.310Z,101535.40
2022-12-03T00:16:11.413Z,101529.00
2022-12-03T00:18:39.145Z,101532.80
2022-12-03T00:21:07.656Z,101528.20
2022-12-03T00:23:40.286Z,101529.80
2022-12-03T00:26:09.941Z,101529.40
2022-12-03T00:28:37.826Z,101527.20
2022-12-03T00:31:05.814Z,101538.40
2022-12-03T00:33:33.617Z,101533.00
2022-12-03T00:36:01.310Z,101541.20
2022-12-03T00:38:28.992Z,101537.60
2022-12-03T00:40:56.709Z,101538.00
2022-12-03T00:43:24.501Z,101536.80
2022-12-03T00:45:52.927Z,101536.60
2022-12-03T00:48:20.798Z,101536.80
2022-12-03T00:50:48.509Z,101535.40
2022-12-03T00:53:16.216Z,101535.00
2022-12-03T00:55:43.970Z,101529.20
2022-12-03T00:58:11.812Z,101529.20
2022-12-03T01:00:39.593Z,101532.80
2022-12-03T01:03:07.331Z,101533.00
2022-12-03T01:05:35.212Z,101530.80
2022-12-03T01:08:02.941Z,101531.80
2022-12-03T01:10:30.738Z,101524.00
2022-12-03T01:12:58.407Z,101529.20
2022-12-03T01:15:26.111Z,101522.20
2022-12-03T01:17:54.316Z,101521.00
2022-12-03T01:20:22.217Z,101517.00
2022-12-03T01:22:49.877Z,101522.40
2022-12-03T01:25:17.994Z,101526.60
2022-12-03T01:27:45.693Z,101526.80
2022-12-03T01:30:14.599Z,101517.80
2022-12-03T01:32:42.261Z,101526.40
2022-12-03T01:35:10.026Z,101522.00
2022-12-03T01:37:38.280Z,101525.40
2022-12-03T01:40:09.220Z,101519.20
2022-12-03T01:42:41.168Z,101517.80
2022-12-03T01:45:22.750Z,101527.60
2022-12-03T01:47:50.880Z,101526.00
2022-12-03T01:50:31.273Z,101524.80
2022-12-03T01:53:03.027Z,101523.40
2022-12-03T01:55:30.901Z,101529.20
2022-12-03T01:58:02.022Z,101523.80
2022-12-03T02:00:30.765Z,101524.60
2022-12-03T02:03:03.888Z,101521.00
2022-12-03T02:05:33.992Z,101519.80
2022-12-03T02:08:02.007Z,101512.20
2022-12-03T02:10:37.353Z,101518.40
2022-12-03T02:13:08.873Z,101519.80
2022-12-03T02:15:39.240Z,101520.80
2022-12-03T02:18:09.423Z,101520.80
2022-12-03T02:21:01.796Z,101510.80
2022-12-03T02:24:15.136Z,101509.00
2022-12-03T02:26:43.185Z,101504.20
2022-12-03T02:29:11.183Z,101502.80
2022-12-03T02:31:39.132Z,101510.60
2022-12-03T02:34:07.802Z,101504.60
2022-12-03T02:36:37.437Z,101508.00
2022-12-03T02:39:05.752Z,101504.60
2022-12-03T02:41:52.059Z,101511.00
2022-12-03T02:44:19.908Z,101507.00
2022-12-03T02:46:47.752Z,101504.00
2022-12-03T02:49:15.679Z,101500.80
2022-12-03T02:51:43.504Z,101503.40
2022-12-03T02:54:12.072Z,101500.00
2022-12-03T02:56:40.691Z,101498.40
2022-12-03T02:59:08.671Z,101501.20
2022-12-03T03:01:36.779Z,101498.40
2022-12-03T03:04:06.421Z,101501.40
2022-12-03T03:06:34.472Z,101495.00
2022-12-03T03:09:03.540Z,101493.20
2022-12-03T03:11:31.676Z,101488.40
2022-12-03T03:14:03.041Z,101485.20
2022-12-03T03:16:30.865Z,101489.20
2022-12-03T03:18:58.697Z,101483.60
2022-12-03T03:21:26.402Z,101478.80
2022-12-03T03:23:54.207Z,101479.80
2022-12-03T03:26:22.136Z,101479.00
2022-12-03T03:28:52.192Z,101471.60
2022-12-03T03:31:23.682Z,101468.20
2022-12-03T03:33:51.685Z,101469.40
2022-12-03T03:36:20.255Z,101464.00
2022-12-03T03:38:48.782Z,101468.40
2022-12-03T03:41:17.511Z,101459.00
2022-12-03T03:43:47.846Z,101440.60
2022-12-03T03:46:18.258Z,101446.20
2022-12-03T03:48:48.586Z,101453.20
2022-12-03T03:51:18.987Z,101452.80
2022-12-03T03:53:50.273Z,101457.20
2022-12-03T03:56:21.084Z,101461.20
2022-12-03T03:58:48.905Z,101465.20
2022-12-03T04:01:18.208Z,101457.40
2022-12-03T04:03:46.216Z,101457.40
2022-12-03T04:06:13.952Z,101464.60
2022-12-03T04:08:41.984Z,101461.80
2022-12-03T04:11:28.474Z,101457.20
2022-12-03T04:13:56.200Z,101464.20
2022-12-03T04:16:24.017Z,101458.20
2022-12-03T04:18:52.102Z,101458.60
2022-12-03T04:21:41.925Z,101456.00
2022-12-03T04:24:11.501Z,101457.80
2022-12-03T04:26:58.000Z,101458.80
2022-12-03T04:29:25.709Z,101458.20
2022-12-03T04:32:12.119Z,101454.60
2022-12-03T04:34:58.628Z,101455.00
2022-12-03T04:37:26.478Z,101455.80
2022-12-03T04:39:54.240Z,101446.40
2022-12-03T04:42:21.939Z,101449.80
2022-12-03T04:44:50.393Z,101443.20
2022-12-03T04:47:21.602Z,101447.00
2022-12-03T04:49:51.864Z,101444.60
2022-12-03T04:52:21.145Z,101443.40
2022-12-03T04:54:49.146Z,101445.00
2022-12-03T04:57:17.430Z,101440.80
2022-12-03T04:59:45.331Z,101442.80
2022-12-03T05:02:13.161Z,101446.20
2022-12-03T05:04:41.879Z,101447.00
2022-12-03T05:07:11.365Z,101443.80
2022-12-03T05:09:39.125Z,101440.60
2022-12-03T05:12:07.030Z,101440.20
2022-12-03T05:14:34.809Z,101438.20
2022-12-03T05:17:02.600Z,101428.60
2022-12-03T05:19:50.944Z,101433.80
2022-12-03T05:22:18.684Z,101429.80
2022-12-03T05:24:46.399Z,101424.00
2022-12-03T05:27:15.800Z,101427.40
2022-12-03T05:29:46.828Z,101417.00
2022-12-03T05:32:15.062Z,101418.20
2022-12-03T05:34:42.785Z,101424.40
2022-12-03T05:37:10.980Z,101416.00
2022-12-03T05:39:38.737Z,101413.60
2022-12-03T05:42:25.232Z,101412.60
2022-12-03T05:44:53.372Z,101414.00
2022-12-03T05:47:21.349Z,101414.80
2022-12-03T05:49:48.997Z,101400.80
2022-12-03T05:52:16.914Z,101404.00
2022-12-03T05:54:44.756Z,101394.20
2022-12-03T05:57:12.412Z,101390.60
2022-12-03T05:59:40.118Z,101390.40
2022-12-03T06:02:07.810Z,101390.20
2022-12-03T06:04:36.400Z,101390.00
2022-12-03T06:07:04.098Z,101385.00
2022-12-03T06:09:31.754Z,101375.60
2022-12-03T06:11:59.515Z,101374.60
2022-12-03T06:14:27.332Z,101378.80
2022-12-03T06:16:54.992Z,101372.20
2022-12-03T06:19:23.088Z,101375.20
2022-12-03T06:21:50.790Z,101375.40
2022-12-03T06:24:18.609Z,101383.00
2022-12-03T06:26:46.332Z,101376.20
2022-12-03T06:29:14.034Z,101371.60
2022-12-03T06:31:42.304Z,101374.40
2022-12-03T06:34:10.142Z,101374.00
2022-12-03T06:36:37.873Z,101372.60
2022-12-03T06:39:05.603Z,101372.60
2022-12-03T06:41:33.371Z,101370.80
2022-12-03T06:44:01.081Z,101366.00
2022-12-03T06:46:29.025Z,101365.60
2022-12-03T06:48:56.893Z,101368.00
2022-12-03T06:51:24.672Z,101365.60
2022-12-03T06:53:52.679Z,101366.40
2022-12-03T06:56:22.552Z,101364.80
2022-12-03T06:58:50.945Z,101363.60
2022-12-03T07:01:19.409Z,101355.00
2022-12-03T07:03:47.684Z,101359.20
2022-12-03T07:06:15.434Z,101360.20
2022-12-03T07:08:43.232Z,101356.20
2022-12-03T07:11:29.837Z,101350.60
2022-12-03T07:14:05.566Z,101346.00
2022-12-03T07:16:36.075Z,101352.00
2022-12-03T07:19:05.634Z,101341.80
2022-12-03T07:21:33.480Z,101344.80
2022-12-03T07:24:01.651Z,101336.00
2022-12-03T07:26:29.487Z,101336.20
2022-12-03T07:28:58.336Z,101339.40
2022-12-03T07:31:26.389Z,101339.00
2022-12-03T07:33:54.181Z,101339.60
2022-12-03T07:36:21.896Z,101333.00
2022-12-03T07:38:49.591Z,101338.20
2022-12-03T07:41:17.314Z,101348.00
2022-12-03T07:43:45.288Z,101336.60
2022-12-03T07:46:13.124Z,101336.80
2022-12-03T07:48:41.015Z,101337.40
2022-12-03T07:51:10.505Z,101331.40
2022-12-03T07:53:42.311Z,101330.40
2022-12-03T07:56:10.983Z,101322.80
2022-12-03T07:58:38.768Z,101314.20
2022-12-03T08:01:06.574Z,101315.20
2022-12-03T08:03:34.363Z,101306.20
2022-12-03T08:06:02.463Z,101308.60
2022-12-03T08:08:30.163Z,101308.40
2022-12-03T08:10:57.842Z,101298.40
2022-12-03T08:13:25.556Z,101299.40
2022-12-03T08:16:01.745Z,101302.20
2022-12-03T08:18:29.475Z,101296.20
2022-12-03T08:20:57.238Z,101299.80
2022-12-03T08:23:25.918Z,101295.00
2022-12-03T08:25:53.793Z,101298.40
2022-12-03T08:28:28.020Z,101295.20
2022-12-03T08:31:03.609Z,101294.80
2022-12-03T08:33:37.378Z,101293.00
2022-12-03T08:36:29.298Z,101292.40
2022-12-03T08:39:02.397Z,101287.40
2022-12-03T08:41:49.101Z,101288.00
2022-12-03T08:44:32.442Z,101285.40
2022-12-03T08:47:24.663Z,101279.80
2022-12-03T08:50:21.893Z,101282.00
2022-12-03T08:52:50.005Z,101279.20
2022-12-03T08:55:55.276Z,101273.00
2022-12-03T08:58:43.817Z,101265.20
2022-12-03T09:01:11.566Z,101267.80
2022-12-03T09:03:50.181Z,101267.20
2022-12-03T09:06:18.041Z,101267.60
2022-12-03T09:08:45.947Z,101272.40
2022-12-03T09:11:14.419Z,101264.00
2022-12-03T09:13:42.291Z,101264.20
2022-12-03T09:16:09.993Z,101265.00
2022-12-03T09:18:37.757Z,101257.40
2022-12-03T09:21:05.876Z,101265.00
2022-12-03T09:23:33.543Z,101256.40
2022-12-03T09:26:01.243Z,101259.40
2022-12-03T09:28:28.952Z,101254.20
2022-12-03T09:30:56.620Z,101250.00
2022-12-03T09:33:24.448Z,101255.00
2022-12-03T09:35:52.107Z,101255.20
2022-12-03T09:38:19.767Z,101259.00
2022-12-03T09:40:47.503Z,101257.80
2022-12-03T09:43:16.052Z,101258.00
2022-12-03T09:45:49.040Z,101255.60
2022-12-03T09:48:19.653Z,101253.80
2022-12-03T09:50:48.121Z,101255.80
2022-12-03T09:53:21.967Z,101256.40
2022-12-03T09:55:50.548Z,101256.20
2022-12-03T09:58:19.669Z,101255.20
2022-12-03T10:00:51.385Z,101255.20
2022-12-03T10:03:29.516Z,101259.80
2022-12-03T10:05:57.927Z,101256.00
2022-12-03T10:08:32.715Z,101251.00
2022-12-03T10:11:00.698Z,101253.60
2022-12-03T10:13:31.389Z,101256.00
2022-12-03T10:16:01.425Z,101248.00
2022-12-03T10:18:38.319Z,101249.40
2022-12-03T10:21:19.857Z,101248.40
2022-12-03T10:23:50.786Z,101239.80
2022-12-03T10:26:40.083Z,101236.00
2022-12-03T10:29:20.649Z,101241.80
2022-12-03T10:32:03.026Z,101241.00
2022-12-03T10:34:34.815Z,101241.40
2022-12-03T10:37:22.702Z,101239.40
2022-12-03T10:40:10.667Z,101238.60
2022-12-03T10:42:41.129Z,101234.40
2022-12-03T10:45:22.502Z,101233.40
2022-12-03T10:48:18.024Z,101229.80
2022-12-03T10:50:48.447Z,101224.00
2022-12-03T10:53:17.522Z,101213.00
2022-12-03T10:55:47.319Z,101219.80
2022-12-03T10:58:24.276Z,101220.40
2022-12-03T11:00:56.837Z,101212.20
2022-12-03T11:03:28.538Z,101198.40
2022-12-03T11:05:57.798Z,101191.40
2022-12-03T11:08:29.817Z,101189.00
2022-12-03T11:11:03.875Z,101188.20
2022-12-03T11:13:34.294Z,101184.20
2022-12-03T11:16:05.987Z,101178.20
2022-12-03T11:18:36.911Z,101171.60
2022-12-03T11:21:08.060Z,101165.20
2022-12-03T11:24:03.025Z,101170.80
2022-12-03T11:26:30.655Z,101159.00
2022-12-03T11:28:59.503Z,101159.40
2022-12-03T11:31:42.300Z,101149.80
2022-12-03T11:34:22.487Z,101143.40
2022-12-03T11:37:12.387Z,101141.80
2022-12-03T11:39:52.639Z,101144.00
2022-12-03T11:42:26.940Z,101141.20
2022-12-03T11:45:03.766Z,101133.00
2022-12-03T11:47:36.707Z,101128.20
2022-12-03T11:50:22.216Z,101126.60
2022-12-03T11:52:58.844Z,101122.40
2022-12-03T11:55:48.746Z,101119.60
2022-12-03T11:58:30.684Z,101112.00
2022-12-03T12:01:02.456Z,101111.40
2022-12-03T12:03:41.747Z,101112.60
2022-12-03T12:06:16.649Z,101105.20
2022-12-03T12:09:00.249Z,101091.20
2022-12-03T12:11:35.565Z,101091.00
2022-12-03T12:14:06.612Z,101090.20
2022-12-03T12:16:55.267Z,101086.20
2022-12-03T12:19:35.477Z,101085.00
2022-12-03T12:22:19.795Z,101084.00
2022-12-03T12:24:51.664Z,101076.60
2022-12-03T12:27:37.839Z,101081.20
2022-12-03T12:30:15.449Z,101075.20
2022-12-03T12:32:51.567Z,101070.60
2022-12-03T12:35:32.485Z,101068.40
2022-12-03T12:38:06.246Z,101065.60
2022-12-03T12:40:37.811Z,101057.40
2022-12-03T12:43:26.121Z,101066.00
2022-12-03T12:46:13.487Z,101058.00
2022-12-03T12:48:48.247Z,101055.00
2022-12-03T12:51:21.144Z,101052.00
2022-12-03T12:53:50.120Z,101045.80
2022-12-03T12:56:28.129Z,101043.00
2022-12-03T12:59:01.308Z,101037.80
2022-12-03T13:01:31.926Z,101040.00
2022-12-03T13:03:59.946Z,101038.20
2022-12-03T13:06:31.140Z,101040.00
2022-12-03T13:09:01.143Z,101031.40
2022-12-03T13:11:47.672Z,101032.60
2022-12-03T13:14:24.995Z,101025.00
2022-12-03T13:16:56.517Z,101021.00
2022-12-03T13:19:26.939Z,101020.80
2022-12-03T13:21:57.533Z,101011.60
2022-12-03T13:24:43.050Z,101012.80
2022-12-03T13:27:13.859Z,101010.80
2022-12-03T13:29:42.141Z,101006.80
2022-12-03T13:32:23.293Z,101001.40
2022-12-03T13:34:51.225Z,100998.00
2022-12-03T13:37:28.299Z,100998.40
2022-12-03T13:39:58.377Z,101000.80
2022-12-03T13:42:39.127Z,100995.60
2022-12-03T13:45:16.081Z,101001.40
2022-12-03T13:47:48.026Z,100991.60
2022-12-03T13:50:41.262Z,100992.00
2022-12-03T13:53:33.483Z,100986.80
2022-12-03T13:56:27.826Z,100983.80
2022-12-03T13:58:59.652Z,100984.80
2022-12-03T14:01:28.706Z,100978.80
2022-12-03T14:03:56.955Z,100977.60
2022-12-03T14:06:24.708Z,100978.20
2022-12-03T14:08:52.505Z,100976.80
2022-12-03T14:11:38.989Z,100972.80
2022-12-03T14:14:06.673Z,100968.60
2022-12-03T14:16:34.423Z,100970.00
2022-12-03T14:19:02.367Z,100967.40
2022-12-03T14:21:30.104Z,100968.80
2022-12-03T14:23:57.777Z,100965.80
2022-12-03T14:26:26.515Z,100963.60
2022-12-03T14:28:54.185Z,100970.40
2022-12-03T14:31:21.989Z,100970.40
2022-12-03T14:33:49.846Z,100970.20
2022-12-03T14:36:17.613Z,100971.60
2022-12-03T14:38:45.308Z,100964.00
2022-12-03T14:41:31.653Z,100967.40
2022-12-03T14:43:59.486Z,100963.00
2022-12-03T14:46:27.301Z,100965.80
2022-12-03T14:48:55.071Z,100965.60
2022-12-03T14:51:23.180Z,100963.60
2022-12-03T14:53:50.832Z,100962.20
2022-12-03T14:56:20.145Z,100956.20
2022-12-03T14:58:47.817Z,100956.00
2022-12-03T15:01:15.530Z,100962.20
2022-12-03T15:03:43.229Z,100967.20
2022-12-03T15:06:10.999Z,100963.00
2022-12-03T15:08:38.666Z,100962.00
2022-12-03T15:11:06.846Z,100965.20
2022-12-03T15:13:34.561Z,100961.60
2022-12-03T15:16:03.028Z,100968.60
2022-12-03T15:18:31.164Z,100966.40
2022-12-03T15:20:58.889Z,100963.20
2022-12-03T15:23:26.799Z,100961.20
2022-12-03T15:25:54.628Z,100960.60
2022-12-03T15:28:23.169Z,100959.60
2022-12-03T15:30:51.064Z,100959.40
2022-12-03T15:33:19.080Z,100962.80
2022-12-03T15:35:46.844Z,100956.40
2022-12-03T15:38:14.510Z,100955.60
2022-12-03T15:40:42.520Z,100958.40
2022-12-03T15:43:10.219Z,100960.20
2022-12-03T15:45:37.998Z,100956.00
2022-12-03T15:48:06.049Z,100959.20
2022-12-03T15:50:39.717Z,100962.40
2022-12-03T15:53:07.871Z,100963.20
2022-12-03T15:55:35.570Z,100953.20
2022-12-03T15:58:03.331Z,100951.60
2022-12-03T16:00:31.028Z,100955.40
2022-12-03T16:02:59.920Z,100949.60
2022-12-03T16:05:28.715Z,100950.20
2022-12-03T16:07:56.463Z,100953.60
2022-12-03T16:10:24.481Z,100956.60
2022-12-03T16:12:52.143Z,100956.00
2022-12-03T16:15:25.114Z,100954.60
2022-12-03T16:17:54.528Z,100952.40
2022-12-03T16:20:22.310Z,100949.80
2022-12-03T16:22:49.992Z,100953.20
2022-12-03T16:25:18.128Z,100948.80
2022-12-03T16:27:45.792Z,100950.00
2022-12-03T16:30:14.053Z,100951.80
2022-12-03T16:32:41.796Z,100948.20
2022-12-03T16:35:09.636Z,100955.40
2022-12-03T16:37:37.324Z,100953.00
2022-12-03T16:40:06.626Z,100955.20
2022-12-03T16:42:34.300Z,100951.40
2022-12-03T16:45:04.469Z,100957.60
2022-12-03T16:47:34.422Z,100955.20
2022-12-03T16:50:07.492Z,100960.60
2022-12-03T16:52:35.783Z,100962.00
2022-12-03T16:55:04.271Z,100949.40
2022-12-03T16:57:33.911Z,100951.60
2022-12-03T17:00:01.976Z,100947.00
2022-12-03T17:02:29.806Z,100952.80
2022-12-03T17:04:57.732Z,100950.60
2022-12-03T17:07:25.543Z,100952.80
2022-12-03T17:09:53.543Z,100945.20
2022-12-03T17:12:21.445Z,100943.80
2022-12-03T17:14:49.173Z,100941.80
2022-12-03T17:17:18.865Z,100941.60
2022-12-03T17:19:46.605Z,100939.80
2022-12-03T17:22:14.310Z,100945.00
2022-12-03T17:24:44.185Z,100945.40
2022-12-03T17:27:12.796Z,100939.00
2022-12-03T17:29:40.463Z,100943.20
2022-12-03T17:32:08.818Z,100936.60
2022-12-03T17:34:36.548Z,100942.60
2022-12-03T17:37:04.341Z,100933.80
2022-12-03T17:39:32.072Z,100940.60
2022-12-03T17:41:59.739Z,100933.00
2022-12-03T17:44:27.452Z,100935.20
2022-12-03T17:46:55.231Z,100936.60
2022-12-03T17:49:28.304Z,100927.60
2022-12-03T17:52:00.159Z,100932.60
2022-12-03T17:54:43.241Z,100931.60
2022-12-03T17:57:15.594Z,100929.00
2022-12-03T17:59:44.196Z,100927.60
2022-12-03T18:02:12.023Z,100924.60
2022-12-03T18:04:39.836Z,100922.60
2022-12-03T18:07:07.521Z,100918.80
2022-12-03T18:09:35.257Z,100926.80
2022-12-03T18:12:03.023Z,100917.00
2022-12-03T18:14:30.744Z,100919.60
2022-12-03T18:16:58.431Z,100920.00
2022-12-03T18:19:26.717Z,100923.80
2022-12-03T18:21:55.111Z,100919.00
2022-12-03T18:24:23.392Z,100924.80
2022-12-03T18:26:51.116Z,100919.60
2022-12-03T18:29:18.927Z,100928.00
2022-12-03T18:31:46.862Z,100927.60
2022-12-03T18:34:15.314Z,100925.00
2022-12-03T18:36:43.333Z,100926.40
2022-12-03T18:39:24.997Z,100920.40
2022-12-03T18:41:53.458Z,100921.40
2022-12-03T18:44:21.421Z,100919.00
2022-12-03T18:46:53.818Z,100915.00
2022-12-03T18:49:22.534Z,100920.20
2022-12-03T18:51:54.513Z,100921.00
2022-12-03T18:54:26.534Z,100922.60
2022-12-03T18:56:54.201Z,100918.60
2022-12-03T18:59:21.889Z,100921.40
2022-12-03T19:01:50.667Z,100917.60
2022-12-03T19:04:18.398Z,100912.60
2022-12-03T19:06:46.053Z,100917.00
2022-12-03T19:09:14.106Z,100909.00
2022-12-03T19:11:41.854Z,100912.60
2022-12-03T19:14:11.067Z,100905.80
2022-12-03T19:16:40.858Z,100901.00
2022-12-03T19:19:09.774Z,100904.00
2022-12-03T19:21:37.687Z,100898.80
2022-12-03T19:26:55.447Z,100893.60
2022-12-03T19:29:23.348Z,100897.20
2022-12-03T19:31:52.438Z,100890.80
2022-12-03T19:34:20.367Z,100888.60
2022-12-03T19:36:48.281Z,100890.00
2022-12-03T19:39:15.993Z,100889.60
2022-12-03T19:41:44.754Z,100883.80
2022-12-03T19:44:15.068Z,100879.60
2022-12-03T19:46:43.400Z,100879.40
2022-12-03T19:49:11.512Z,100882.60
2022-12-03T19:51:39.253Z,100884.60
2022-12-03T19:54:10.706Z,100884.00
2022-12-03T19:56:38.744Z,100888.20
2022-12-03T19:59:07.706Z,100895.20
2022-12-03T20:01:36.641Z,100888.40
2022-12-03T20:04:04.587Z,100892.60
2022-12-03T20:06:37.529Z,100892.20
2022-12-03T20:09:11.520Z,100887.80
2022-12-03T20:11:41.670Z,100885.20
2022-12-03T20:14:16.612Z,100883.60
2022-12-03T20:16:45.499Z,100887.80
2022-12-03T20:19:16.224Z,100889.80
2022-12-03T20:21:44.704Z,100892.00
2022-12-03T20:24:18.257Z,100889.80
2022-12-03T20:26:46.241Z,100894.20
2022-12-03T20:29:14.366Z,100896.60
2022-12-03T20:31:42.109Z,100897.80
2022-12-03T20:34:11.333Z,100899.00
2022-12-03T20:36:39.899Z,100901.20
2022-12-03T20:39:08.321Z,100905.20
2022-12-03T20:41:36.880Z,100898.80
2022-12-03T20:44:07.307Z,100895.60
2022-12-03T20:46:36.047Z,100896.80
2022-12-03T20:49:05.584Z,100900.80
2022-12-03T20:51:33.675Z,100902.00
2022-12-03T20:54:02.356Z,100902.00
2022-12-03T20:56:39.255Z,100906.00
2022-12-03T20:59:11.499Z,100903.20
2022-12-03T21:01:41.925Z,100901.20
2022-12-03T21:04:13.526Z,100902.00
2022-12-03T21:06:42.437Z,100904.00
2022-12-03T21:09:12.562Z,100901.00
2022-12-03T21:11:42.531Z,100897.00
2022-12-03T21:14:11.256Z,100895.00
2022-12-03T21:17:06.526Z,100894.60
2022-12-03T21:19:27.800Z,100889.00
2022-12-03T21:21:55.495Z,100890.80
2022-12-03T21:24:23.241Z,100887.20
2022-12-03T21:26:51.108Z,100880.80
2022-12-03T21:29:18.975Z,100879.40
2022-12-03T21:31:46.811Z,100881.20
2022-12-03T21:34:15.013Z,100885.00
2022-12-03T21:36:42.802Z,100882.40
2022-12-03T21:39:10.967Z,100881.40
2022-12-03T21:41:38.704Z,100879.60
2022-12-03T21:44:06.390Z,100879.00
2022-12-03T21:47:10.952Z,100864.40
2022-12-03T21:49:22.767Z,100877.80
2022-12-03T21:51:50.490Z,100870.40
2022-12-03T21:54:18.555Z,100871.60
2022-12-03T21:56:46.261Z,100873.00
2022-12-03T21:59:14.608Z,100865.20
2022-12-03T22:01:46.977Z,100860.40
2022-12-03T22:04:15.153Z,100853.60
2022-12-03T22:06:43.131Z,100849.80
2022-12-03T22:09:10.782Z,100851.80
2022-12-03T22:11:38.926Z,100850.40
2022-12-03T22:14:08.278Z,100854.20
2022-12-03T22:16:36.162Z,100850.00
2022-12-03T22:19:04.103Z,100848.20
2022-12-03T22:21:31.839Z,100849.80
2022-12-03T22:23:59.846Z,100848.20
2022-12-03T22:26:27.546Z,100854.80
2022-12-03T22:28:55.249Z,100852.00
2022-12-03T22:31:22.990Z,100848.00
2022-12-03T22:33:50.939Z,100847.20
2022-12-03T22:36:21.437Z,100838.00
2022-12-03T22:38:51.026Z,100841.40
2022-12-03T22:41:20.106Z,100839.00
2022-12-03T22:43:49.498Z,100841.60
2022-12-03T22:46:17.836Z,100842.20
2022-12-03T22:48:47.029Z,100837.80
2022-12-03T22:51:21.228Z,100839.60
2022-12-03T22:53:55.934Z,100839.40
2022-12-03T22:56:25.734Z,100836.40
2022-12-03T22:58:53.473Z,100838.40
2022-12-03T23:01:26.691Z,100836.80
2022-12-03T23:03:55.345Z,100840.40
2022-12-03T23:06:24.614Z,100836.80
2022-12-03T23:08:52.955Z,100833.40
2022-12-03T23:11:21.171Z,100830.60
2022-12-03T23:13:49.057Z,100826.00
2022-12-03T23:16:27.505Z,100827.60
2022-12-03T23:18:58.428Z,100823.20
2022-12-03T23:21:31.009Z,100824.20
2022-12-03T23:24:00.548Z,100816.60
2022-12-03T23:26:29.238Z,100815.80
2022-12-03T23:28:57.016Z,100813.80
2022-12-03T23:31:30.278Z,100810.80
2022-12-03T23:33:59.940Z,100819.00
2022-12-03T23:36:31.515Z,100816.20
2022-12-03T23:38:59.491Z,100818.20
2022-12-03T23:41:28.023Z,100815.40
2022-12-03T23:43:56.623Z,100819.80
2022-12-03T23:46:27.303Z,100815.60
2022-12-03T23:48:55.240Z,100816.00
2022-12-03T23:51:25.500Z,100813.00
2022-12-03T23:53:55.441Z,100820.00
2022-12-03T23:56:30.585Z,100818.80
2022-12-03T23:58:58.885Z,100812.80
